Time;durP1;ratioP1;P1;durP2;ratioP2;P2;SDS_P1;SDS_P2;PMS_P1;PMS_P2;Temp;Humidity;BMP_temperature;BMP_pressure;BME280_temperature;BME280_humidity;BME280_pressure;Samples;Min_cycle;Max_cycle;Signal;HPM_P1;HPM_P2
2022/12/09 00:00:05;;;;;;;38.87;22.87;;;5.10;99.90;;;;;;10618381;28;20279;-84
2022/12/09 00:05:08;;;;;;;32.17;19.83;;;5.90;99.90;;;;;;10635181;28;20180;-83
2022/12/09 00:10:11;;;;;;;33.53;22.97;;;5.40;99.90;;;;;;10635917;28;20224;-82
2022/12/09 00:15:14;;;;;;;37.13;21.67;;;5.40;99.90;;;;;;10635711;27;20207;-82
2022/12/09 00:20:16;;;;;;;34.17;20.57;;;6.10;99.90;;;;;;10635460;28;20195;-83
2022/12/09 00:25:19;;;;;;;22.77;15.10;;;5.30;99.90;;;;;;10600429;28;20211;-82
2022/12/09 00:30:21;;;;;;;18.17;13.20;;;4.80;99.90;;;;;;10635204;28;20176;-81
2022/12/09 00:35:24;;;;;;;15.93;11.50;;;5.60;99.90;;;;;;10627950;28;20216;-82
2022/12/09 00:40:27;;;;;;;17.30;11.63;;;5.40;99.90;;;;;;10616702;28;20189;-82
2022/12/09 00:45:29;;;;;;;17.87;11.77;;;5.00;99.90;;;;;;10615449;28;20204;-83
2022/12/09 00:50:32;;;;;;;18.57;12.10;;;5.70;99.90;;;;;;10621828;27;20212;-83
2022/12/09 00:55:34;;;;;;;15.30;10.93;;;6.00;99.90;;;;;;10610127;27;20242;-83
2022/12/09 01:00:38;;;;;;;16.93;10.50;;;5.20;99.90;;;;;;10635251;27;20235;-82
2022/12/09 01:05:41;;;;;;;17.00;10.63;;;4.40;99.90;;;;;;10575934;28;20307;-83
2022/12/09 01:10:46;;;;;;;18.23;13.40;;;4.60;99.90;;;;;;10579419;28;20234;-82
2022/12/09 01:15:48;;;;;;;16.13;11.50;;;4.50;99.90;;;;;;10603645;27;20217;-81
2022/12/09 01:20:58;;;;;;;16.80;11.53;;;5.30;99.90;;;;;;10597229;27;20221;-82
2022/12/09 01:26:05;;;;;;;16.07;12.67;;;6.20;99.90;;;;;;10636792;27;20253;-82
2022/12/09 01:31:14;;;;;;;18.63;11.40;;;5.70;99.90;;;;;;10597041;27;20248;-83
2022/12/09 01:36:21;;;;;;;17.97;11.13;;;5.60;99.90;;;;;;10574961;28;20205;-83
2022/12/09 01:41:23;;;;;;;17.60;11.83;;;5.80;99.90;;;;;;10575455;27;20293;-83
2022/12/09 01:46:26;;;;;;;18.83;12.63;;;5.50;99.90;;;;;;10601421;27;20196;-83
2022/12/09 01:51:29;;;;;;;12.77;10.63;;;5.60;99.90;;;;;;10586495;28;20219;-83
2022/12/09 01:56:34;;;;;;;19.50;12.30;;;4.50;99.90;;;;;;10582706;27;20689;-83
2022/12/09 02:01:39;;;;;;;17.17;11.83;;;4.10;99.90;;;;;;10579937;28;20291;-83
2022/12/09 02:06:43;;;;;;;17.73;12.77;;;3.70;99.90;;;;;;10623410;27;20234;-83
2022/12/09 02:12:08;;;;;;;18.03;12.90;;;3.40;99.90;;;;;;10574223;28;20241;-83
2022/12/09 02:17:34;;;;;;;15.97;10.90;;;3.40;99.90;;;;;;10602927;27;20251;-83
2022/12/09 02:22:43;;;;;;;20.63;12.93;;;3.50;99.90;;;;;;10611121;28;20753;-83
2022/12/09 02:28:04;;;;;;;17.90;12.80;;;3.80;99.90;;;;;;10552180;28;20253;-83
2022/12/09 02:33:22;;;;;;;19.53;13.37;;;3.50;99.90;;;;;;10543913;28;20276;-83
2022/12/09 02:38:27;;;;;;;23.73;16.00;;;3.60;99.90;;;;;;10565193;28;20270;-83
2022/12/09 02:43:36;;;;;;;22.97;16.53;;;3.90;99.90;;;;;;10544421;28;20192;-83
2022/12/09 02:48:44;;;;;;;26.03;16.63;;;3.40;99.90;;;;;;10577531;27;20208;-83
2022/12/09 02:53:52;;;;;;;22.37;14.37;;;3.00;99.90;;;;;;10568661;28;20228;-83
2022/12/09 02:58:56;;;;;;;23.30;15.87;;;2.80;99.90;;;;;;10570963;28;20220;-83
2022/12/09 03:04:02;;;;;;;28.00;18.83;;;3.10;99.90;;;;;;10550768;28;20205;-83
2022/12/09 03:09:12;;;;;;;25.20;17.60;;;3.40;99.90;;;;;;10568574;28;20421;-83
2022/12/09 03:14:22;;;;;;;24.53;16.43;;;3.40;99.90;;;;;;10599050;27;20216;-83
2022/12/09 03:19:35;;;;;;;29.73;19.40;;;3.30;99.90;;;;;;10565801;28;20258;-83
2022/12/09 03:24:45;;;;;;;22.17;15.53;;;3.40;99.90;;;;;;10566882;28;20209;-83
2022/12/09 03:29:49;;;;;;;27.37;17.03;;;3.40;99.90;;;;;;10564922;28;20213;-83
2022/12/09 03:35:00;;;;;;;22.73;15.20;;;3.30;99.90;;;;;;10551454;27;20701;-83
2022/12/09 03:40:06;;;;;;;26.27;15.20;;;3.20;99.90;;;;;;10604750;27;20266;-83
2022/12/09 03:45:18;;;;;;;27.50;15.87;;;3.00;99.90;;;;;;10567034;28;20200;-83
2022/12/09 03:50:23;;;;;;;22.03;14.97;;;2.60;99.90;;;;;;10585208;28;20265;-83
2022/12/09 03:55:37;;;;;;;22.13;15.93;;;2.40;99.90;;;;;;10601283;27;20224;-83
2022/12/09 04:00:40;;;;;;;24.37;15.23;;;2.50;99.90;;;;;;10583031;28;20224;-83
2022/12/09 04:05:43;;;;;;;22.53;15.67;;;2.60;99.90;;;;;;10616508;27;20200;-83
2022/12/09 04:10:45;;;;;;;19.63;13.77;;;2.40;99.90;;;;;;10591531;27;20265;-83
2022/12/09 04:15:48;;;;;;;21.70;14.53;;;2.20;99.90;;;;;;10584515;28;20217;-83
2022/12/09 04:20:51;;;;;;;24.17;16.57;;;2.50;99.90;;;;;;10584476;28;20192;-83
2022/12/09 04:25:53;;;;;;;25.10;15.70;;;2.20;99.90;;;;;;10584308;28;20270;-83
2022/12/09 04:30:56;;;;;;;26.23;16.00;;;1.90;99.90;;;;;;10566068;28;20239;-83
2022/12/09 04:36:07;;;;;;;21.43;14.90;;;1.80;99.90;;;;;;10565591;28;20242;-83
2022/12/09 04:41:11;;;;;;;21.67;13.73;;;1.90;99.90;;;;;;10542168;28;20193;-83
2022/12/09 04:46:16;;;;;;;18.23;12.73;;;2.20;99.90;;;;;;10578004;28;20201;-83
2022/12/09 04:51:19;;;;;;;24.83;15.67;;;2.40;99.90;;;;;;10548426;28;20227;-83
2022/12/09 04:56:22;;;;;;;24.90;16.03;;;2.10;99.90;;;;;;10582456;28;20242;-83
2022/12/09 05:01:25;;;;;;;24.03;15.10;;;2.00;99.90;;;;;;10564485;28;20217;-83
2022/12/09 05:06:32;;;;;;;36.83;14.10;;;2.20;99.90;;;;;;10581224;28;20205;-83
2022/12/09 05:11:35;;;;;;;53.07;16.30;;;2.10;99.90;;;;;;10582499;28;20231;-83
2022/12/09 05:16:38;;;;;;;29.53;17.33;;;1.90;99.90;;;;;;10563791;28;20297;-83
2022/12/09 05:21:42;;;;;;;36.20;17.27;;;1.90;99.90;;;;;;10581820;28;20192;-82
2022/12/09 05:26:45;;;;;;;45.80;15.40;;;1.70;99.90;;;;;;10563791;28;20188;-82
2022/12/09 05:31:50;;;;;;;59.60;16.17;;;1.60;99.90;;;;;;10581548;28;20727;-82
2022/12/09 05:36:53;;;;;;;66.17;16.87;;;1.60;99.90;;;;;;10577439;27;20216;-82
2022/12/09 05:41:56;;;;;;;70.63;16.50;;;1.40;99.90;;;;;;10581513;28;20189;-83
2022/12/09 05:46:58;;;;;;;63.07;16.73;;;1.30;99.90;;;;;;10581295;28;20231;-83
2022/12/09 05:52:01;;;;;;;54.77;17.60;;;1.30;99.90;;;;;;10560664;28;20204;-82
2022/12/09 05:57:04;;;;;;;61.20;18.07;;;1.40;99.90;;;;;;10557424;27;20313;-82
2022/12/09 06:02:07;;;;;;;59.83;17.07;;;1.30;99.90;;;;;;10514108;28;20782;-83
2022/12/09 06:07:12;;;;;;;76.33;17.90;;;1.30;99.90;;;;;;10501393;28;20202;-83
2022/12/09 06:12:15;;;;;;;105.87;17.90;;;1.60;99.90;;;;;;10518491;28;20666;-83
2022/12/09 06:17:19;;;;;;;40.10;17.13;;;1.90;99.90;;;;;;10531336;28;20239;-83
2022/12/09 06:22:22;;;;;;;96.13;18.73;;;2.30;99.90;;;;;;10523183;28;20259;-83
2022/12/09 06:27:24;;;;;;;83.23;22.60;;;2.60;99.90;;;;;;10527724;28;20237;-83
2022/12/09 06:32:29;;;;;;;88.07;30.47;;;2.30;99.90;;;;;;10518754;28;20285;-82
2022/12/09 06:37:32;;;;;;;75.37;29.53;;;2.10;99.90;;;;;;10508971;28;20226;-82
2022/12/09 06:42:35;;;;;;;43.23;22.33;;;2.00;99.90;;;;;;10494599;28;20238;-82
2022/12/09 06:47:39;;;;;;;43.67;16.80;;;2.20;99.90;;;;;;10492071;28;20299;-82
2022/12/09 06:52:42;;;;;;;28.00;15.70;;;2.20;99.90;;;;;;10485850;28;20659;-83
2022/12/09 06:57:46;;;;;;;32.43;15.50;;;2.10;99.90;;;;;;10497817;28;20729;-82
2022/12/09 07:02:48;;;;;;;69.80;29.13;;;2.10;99.90;;;;;;10563660;28;20232;-82
2022/12/09 07:07:52;;;;;;;45.07;20.10;;;2.10;99.90;;;;;;10581550;28;20235;-82
2022/12/09 07:12:55;;;;;;;37.97;17.93;;;2.30;99.90;;;;;;10556506;28;20296;-82
2022/12/09 07:17:57;;;;;;;43.77;18.00;;;2.20;99.90;;;;;;10538334;28;20616;-82
2022/12/09 07:23:00;;;;;;;50.77;19.57;;;2.20;99.90;;;;;;10557187;28;20235;-83
2022/12/09 07:28:03;;;;;;;27.93;17.20;;;2.30;99.90;;;;;;10555978;28;20205;-83
2022/12/09 07:33:05;;;;;;;42.23;18.50;;;2.40;99.90;;;;;;10551518;28;20297;-83
2022/12/09 07:38:08;;;;;;;19.83;11.43;;;2.40;99.90;;;;;;10563675;28;20285;-86
2022/12/09 07:43:11;;;;;;;32.33;15.87;;;2.90;99.90;;;;;;10582430;28;20196;-87
2022/12/09 07:48:13;;;;;;;36.80;18.23;;;5.70;99.90;;;;;;10581635;28;20236;-86
2022/12/09 07:53:16;;;;;;;35.60;19.17;;;4.20;99.90;;;;;;10582115;28;20779;-87
2022/12/09 07:58:19;;;;;;;30.27;18.70;;;3.40;99.90;;;;;;10562873;28;20213;-87
2022/12/09 08:03:21;;;;;;;31.53;17.50;;;3.20;99.90;;;;;;10562467;28;20606;-87
2022/12/09 08:08:24;;;;;;;27.33;16.10;;;3.00;99.90;;;;;;10563280;28;20201;-88
2022/12/09 08:13:27;;;;;;;26.17;15.67;;;3.00;99.90;;;;;;10580566;28;20709;-88
2022/12/09 08:18:31;;;;;;;20.87;11.73;;;3.10;99.90;;;;;;10588085;27;20202;-84
2022/12/09 08:23:35;;;;;;;22.17;14.23;;;3.60;99.90;;;;;;10573482;27;20258;-84
2022/12/09 08:28:38;;;;;;;23.30;14.57;;;4.60;99.90;;;;;;10576488;27;20228;-84
2022/12/09 08:33:41;;;;;;;22.83;15.20;;;4.50;99.90;;;;;;10573476;28;20302;-84
2022/12/09 08:38:45;;;;;;;20.07;13.53;;;4.10;99.90;;;;;;10577217;28;20799;-84
2022/12/09 08:43:47;;;;;;;24.93;15.10;;;4.10;99.90;;;;;;10580224;27;20231;-85
2022/12/09 08:48:50;;;;;;;24.27;15.80;;;4.40;99.90;;;;;;10576549;28;20408;-84
2022/12/09 08:53:53;;;;;;;26.10;15.77;;;3.90;99.90;;;;;;10558268;28;20297;-84
2022/12/09 08:58:56;;;;;;;34.20;14.43;;;3.80;99.90;;;;;;10558029;27;20279;-85
2022/12/09 09:04:01;;;;;;;26.53;14.53;;;3.90;99.90;;;;;;10578315;27;20247;-85
2022/12/09 09:09:05;;;;;;;32.27;14.27;;;4.70;99.90;;;;;;10539153;28;20224;-84
2022/12/09 09:14:10;;;;;;;24.63;14.20;;;4.40;99.90;;;;;;10575243;28;20259;-83
2022/12/09 09:19:16;;;;;;;31.43;15.17;;;4.60;99.90;;;;;;10574209;28;20232;-84
2022/12/09 09:24:22;;;;;;;27.47;14.03;;;4.50;99.90;;;;;;10572279;27;20642;-84
2022/12/09 09:29:25;;;;;;;23.17;12.70;;;5.40;99.90;;;;;;10554297;28;20228;-85
2022/12/09 09:34:27;;;;;;;23.80;13.83;;;4.80;99.90;;;;;;10555086;28;20911;-84
2022/12/09 09:39:30;;;;;;;18.93;12.53;;;4.50;99.90;;;;;;10574096;28;20224;-83
2022/12/09 09:44:38;;;;;;;20.50;11.50;;;4.30;99.90;;;;;;10573323;28;20232;-83
2022/12/09 09:49:57;;;;;;;16.97;11.03;;;4.40;99.90;;;;;;10569242;28;20645;-83
2022/12/09 09:55:22;;;;;;;20.67;13.40;;;5.70;99.90;;;;;;10573216;27;20306;-83
2022/12/09 10:00:36;;;;;;;18.10;11.53;;;6.50;99.90;;;;;;10571452;28;20253;-83
2022/12/09 10:06:09;;;;;;;22.33;13.30;;;6.30;99.90;;;;;;10535340;28;20229;-84
2022/12/09 10:11:25;;;;;;;21.60;13.77;;;5.60;99.90;;;;;;10570852;27;20284;-84
2022/12/09 10:16:34;;;;;;;18.97;11.70;;;5.40;99.90;;;;;;10573789;28;20247;-83
2022/12/09 10:21:43;;;;;;;28.03;15.77;;;6.60;99.90;;;;;;10557288;28;20262;-83
2022/12/09 10:27:10;;;;;;;26.47;15.33;;;5.00;99.90;;;;;;10568037;28;20268;-83
2022/12/09 10:32:17;;;;;;;27.43;15.90;;;4.50;99.90;;;;;;10591199;28;20219;-83
2022/12/09 10:37:31;;;;;;;27.17;15.90;;;4.70;99.90;;;;;;10569065;28;20655;-83
2022/12/09 10:48:38;;;;;;;33.13;19.33;;;5.00;99.90;;;;;;10574811;28;20200;-82
2022/12/09 10:54:07;;;;;;;41.43;23.03;;;2.80;99.90;;;;;;10515363;28;20257;-84
2022/12/09 10:59:23;;;;;;;46.50;24.87;;;2.00;99.90;;;;;;10539681;28;20254;-84
2022/12/09 11:04:32;;;;;;;48.27;24.90;;;1.90;99.90;;;;;;10608330;28;20206;-84
2022/12/09 11:09:38;;;;;;;43.43;22.70;;;1.40;99.90;;;;;;10575420;28;20232;-84
2022/12/09 11:14:55;;;;;;;58.47;27.93;;;1.40;99.90;;;;;;10574845;27;20387;-83
2022/12/09 11:20:04;;;;;;;54.70;26.87;;;1.40;99.90;;;;;;10625114;27;20192;-84
2022/12/09 11:25:14;;;;;;;51.80;25.13;;;1.40;99.90;;;;;;10615711;27;20605;-83
2022/12/09 11:30:20;;;;;;;33.50;15.77;;;1.50;99.90;;;;;;10570919;27;20196;-83
2022/12/09 11:35:38;;;;;;;53.73;29.00;;;1.50;99.90;;;;;;10587459;27;20809;-82
2022/12/09 11:40:42;;;;;;;56.43;27.83;;;1.30;99.90;;;;;;10581553;28;20232;-82
2022/12/09 11:45:44;;;;;;;67.37;30.87;;;1.30;99.90;;;;;;10561452;28;20773;-81
2022/12/09 11:50:50;;;;;;;64.33;31.20;;;1.50;99.90;;;;;;10579654;27;20234;-80
2022/12/09 11:56:15;;;;;;;54.70;29.27;;;1.60;99.90;;;;;;10573302;27;20285;-80
2022/12/09 12:01:35;;;;;;;64.87;29.40;;;1.40;99.90;;;;;;10581196;28;20243;-80
2022/12/09 12:06:49;;;;;;;59.30;30.13;;;1.50;99.90;;;;;;10561917;28;20212;-81
2022/12/09 12:12:06;;;;;;;71.33;33.93;;;1.50;99.90;;;;;;10580522;28;20283;-81
2022/12/09 12:17:24;;;;;;;52.27;26.80;;;1.60;99.90;;;;;;10578904;28;20238;-81
2022/12/09 12:22:45;;;;;;;48.70;27.40;;;1.60;99.90;;;;;;10579318;28;20257;-80
2022/12/09 12:27:58;;;;;;;64.13;31.50;;;1.50;99.90;;;;;;10562781;28;20219;-80
2022/12/09 12:33:19;;;;;;;58.07;35.13;;;1.50;99.90;;;;;;10551611;28;20583;-80
2022/12/09 12:39:19;;;;;;;61.43;29.80;;;1.60;99.90;;;;;;10567862;28;20257;-88
2022/12/09 12:50:27;;;;;;;56.27;28.07;;;1.40;99.90;;;;;;10589655;27;20225;-87
2022/12/09 12:55:41;;;;;;;56.30;29.73;;;1.40;99.90;;;;;;10562217;28;20252;-87
2022/12/09 13:01:03;;;;;;;52.53;25.80;;;1.50;99.90;;;;;;10576479;28;20253;-87
2022/12/09 13:06:11;;;;;;;49.53;25.97;;;1.40;99.90;;;;;;10578802;28;20198;-86
2022/12/09 13:11:18;;;;;;;52.03;27.13;;;1.40;99.90;;;;;;10578934;27;20268;-86
2022/12/09 13:16:29;;;;;;;49.00;25.00;;;1.30;99.90;;;;;;10549968;27;20303;-87
2022/12/09 13:21:31;;;;;;;48.47;25.83;;;1.10;99.90;;;;;;10578026;27;20232;-87
2022/12/09 13:26:52;;;;;;;47.50;26.90;;;1.10;99.90;;;;;;10577691;28;20205;-86
2022/12/09 13:43:02;;;;;;;42.90;23.77;;;0.80;99.90;;;;;;10224672;28;20565;-85
2022/12/09 13:48:08;;;;;;;53.13;26.23;;;0.90;99.90;;;;;;10298704;28;20256;-84
2022/12/09 13:53:17;;;;;;;25.03;13.50;;;0.90;99.90;;;;;;10298343;28;20630;-88
2022/12/09 13:58:47;;;;;;;33.90;15.57;;;2.10;99.90;;;;;;10288124;28;20647;-85
2022/12/09 14:04:09;;;;;;;28.80;16.57;;;3.90;99.90;;;;;;10281086;28;20198;-85
2022/12/09 14:09:17;;;;;;;28.90;15.83;;;3.60;99.90;;;;;;10291437;28;20189;-85
2022/12/09 14:14:24;;;;;;;25.57;13.77;;;2.70;99.90;;;;;;10291607;28;20210;-85
2022/12/09 14:19:28;;;;;;;26.20;15.43;;;2.40;99.90;;;;;;10291203;28;20209;-85
2022/12/09 14:24:31;;;;;;;23.93;13.23;;;2.20;99.90;;;;;;10292568;28;20233;-85
2022/12/09 14:29:47;;;;;;;28.70;15.73;;;2.20;99.90;;;;;;10292597;28;20195;-85
2022/12/09 14:35:03;;;;;;;32.27;18.30;;;2.10;99.90;;;;;;10291337;28;20590;-85
2022/12/09 14:40:14;;;;;;;40.47;24.67;;;2.10;99.90;;;;;;10292089;28;20810;-85
2022/12/09 14:45:56;;;;;;;39.03;20.57;;;2.60;99.90;;;;;;10294451;28;20264;-85
2022/12/09 14:51:33;;;;;;;47.03;24.03;;;2.90;99.90;;;;;;10300442;28;20199;-85
2022/12/09 14:56:36;;;;;;;29.13;17.33;;;2.70;99.90;;;;;;10300229;28;20214;-85
2022/12/09 15:01:51;;;;;;;40.93;21.80;;;2.70;99.90;;;;;;10298589;28;20258;-85
2022/12/09 15:07:10;;;;;;;39.53;21.23;;;2.80;99.90;;;;;;10299963;28;20201;-85
2022/12/09 15:12:13;;;;;;;61.00;40.07;;;2.00;99.90;;;;;;10297969;28;20257;-85
2022/12/09 15:17:26;;;;;;;69.70;45.37;;;1.90;99.90;;;;;;10298180;28;20221;-85
2022/12/09 15:22:31;;;;;;;55.03;31.60;;;1.90;99.90;;;;;;10299188;28;20197;-85
2022/12/09 15:27:33;;;;;;;49.37;28.03;;;1.80;99.90;;;;;;10299203;28;20202;-85
2022/12/09 15:32:39;;;;;;;55.17;29.13;;;1.70;99.90;;;;;;10298913;28;20206;-85
2022/12/09 15:37:42;;;;;;;44.93;26.57;;;1.30;99.90;;;;;;10298588;28;20245;-85
2022/12/09 15:42:49;;;;;;;52.33;34.33;;;1.10;99.90;;;;;;10298300;28;20237;-85
2022/12/09 15:48:10;;;;;;;47.50;29.30;;;1.20;99.90;;;;;;10298340;28;20613;-85
2022/12/09 15:53:43;;;;;;;32.73;20.83;;;1.40;99.90;;;;;;10280880;28;20233;-85
2022/12/09 15:58:53;;;;;;;28.90;18.70;;;1.70;99.90;;;;;;10296531;28;20591;-85
2022/12/09 16:03:58;;;;;;;35.23;21.87;;;2.10;99.90;;;;;;10297779;28;20200;-85
2022/12/09 16:09:01;;;;;;;28.60;18.23;;;2.00;99.90;;;;;;10297521;28;20201;-85
2022/12/09 16:14:04;;;;;;;27.77;17.20;;;1.60;99.90;;;;;;10297179;28;20197;-85
2022/12/09 16:19:24;;;;;;;27.10;17.87;;;1.70;99.90;;;;;;10295625;28;20289;-85
2022/12/09 16:24:27;;;;;;;26.57;18.03;;;2.10;99.90;;;;;;10279552;28;20205;-85
2022/12/09 16:29:52;;;;;;;28.27;18.30;;;2.00;99.90;;;;;;10295079;28;20217;-85
2022/12/09 16:34:58;;;;;;;28.37;17.13;;;2.30;99.90;;;;;;10296480;28;20228;-85
2022/12/09 16:40:19;;;;;;;34.00;19.67;;;2.00;99.90;;;;;;10294401;28;20613;-85
2022/12/09 16:45:32;;;;;;;24.07;16.20;;;1.70;99.90;;;;;;10294474;28;20212;-85
2022/12/09 16:50:41;;;;;;;31.57;20.30;;;1.50;99.90;;;;;;10296147;28;20197;-85
2022/12/09 16:55:52;;;;;;;33.10;19.73;;;1.70;99.90;;;;;;10293516;28;20271;-85
2022/12/09 17:00:56;;;;;;;30.80;17.30;;;2.00;99.90;;;;;;10294456;28;20538;-85
2022/12/09 17:05:59;;;;;;;24.73;16.00;;;1.50;99.90;;;;;;10295318;28;20205;-85
2022/12/09 17:11:02;;;;;;;27.37;16.40;;;1.60;99.90;;;;;;10293400;28;20689;-85
2022/12/09 17:16:05;;;;;;;27.27;15.40;;;1.40;99.90;;;;;;10294820;28;20588;-85
2022/12/09 17:21:11;;;;;;;19.33;13.23;;;1.20;99.90;;;;;;10294707;28;20602;-85
2022/12/09 17:26:16;;;;;;;26.10;15.13;;;1.30;99.90;;;;;;10294645;28;20205;-85
2022/12/09 17:31:21;;;;;;;18.47;12.60;;;1.50;99.90;;;;;;10294504;28;20202;-85
2022/12/09 17:36:24;;;;;;;24.27;15.30;;;1.30;99.90;;;;;;10292591;28;20288;-85
2022/12/09 17:41:26;;;;;;;24.37;15.50;;;1.20;99.90;;;;;;10293768;28;20572;-85
2022/12/09 17:46:29;;;;;;;24.97;15.83;;;1.10;99.90;;;;;;10293875;28;20670;-85
2022/12/09 17:51:31;;;;;;;23.57;14.60;;;1.10;99.90;;;;;;10293691;28;20209;-85
2022/12/09 17:56:38;;;;;;;30.00;16.63;;;1.10;99.90;;;;;;10293254;28;20221;-84
2022/12/09 18:01:42;;;;;;;26.93;16.50;;;1.20;99.90;;;;;;10293328;28;20227;-85
2022/12/09 18:06:45;;;;;;;23.17;14.33;;;1.40;99.90;;;;;;10291901;28;20208;-85
2022/12/09 18:11:50;;;;;;;22.27;14.70;;;1.40;99.90;;;;;;10291282;28;20591;-85
2022/12/09 18:16:52;;;;;;;22.27;15.67;;;1.40;99.90;;;;;;10292785;28;20567;-85
2022/12/09 18:21:56;;;;;;;28.87;17.43;;;1.70;99.90;;;;;;10275124;28;20683;-85
2022/12/09 18:26:59;;;;;;;27.70;16.70;;;1.80;99.90;;;;;;10292609;28;20206;-85
2022/12/09 18:32:01;;;;;;;26.13;17.67;;;1.70;99.90;;;;;;10290937;28;20745;-85
2022/12/09 18:37:04;;;;;;;29.17;19.07;;;1.70;99.90;;;;;;10291098;28;20229;-85
2022/12/09 18:42:07;;;;;;;29.37;19.47;;;1.70;99.90;;;;;;10291033;28;20225;-85
2022/12/09 18:47:09;;;;;;;30.37;18.83;;;1.80;99.90;;;;;;10292423;28;20237;-85
2022/12/09 18:52:12;;;;;;;30.40;18.90;;;1.90;99.90;;;;;;10290981;28;20264;-84
2022/12/09 18:57:14;;;;;;;23.53;14.47;;;1.60;99.90;;;;;;10291875;28;20563;-85
2022/12/09 19:02:17;;;;;;;53.33;28.93;;;2.00;99.90;;;;;;10292011;28;20222;-85
2022/12/09 19:07:19;;;;;;;32.70;20.53;;;1.90;99.90;;;;;;10291885;28;20567;-85
2022/12/09 19:12:22;;;;;;;37.27;21.23;;;1.70;99.90;;;;;;10274455;28;20244;-85
2022/12/09 19:17:45;;;;;;;27.17;17.07;;;1.60;99.90;;;;;;10291691;28;20223;-85
2022/12/09 19:22:48;;;;;;;27.97;17.77;;;1.90;99.90;;;;;;10289981;28;20675;-85
2022/12/09 19:27:50;;;;;;;42.03;23.87;;;1.80;99.90;;;;;;10290655;28;20202;-85
2022/12/09 19:32:53;;;;;;;37.50;22.77;;;1.30;99.90;;;;;;10295577;28;20202;-85
2022/12/09 19:37:55;;;;;;;38.87;22.70;;;1.20;99.90;;;;;;10297547;28;20222;-84
2022/12/09 19:43:02;;;;;;;41.10;22.07;;;1.20;99.90;;;;;;10298319;28;20628;-84
2022/12/09 19:48:05;;;;;;;39.60;22.60;;;1.20;99.90;;;;;;10296979;28;20238;-84
2022/12/09 19:53:08;;;;;;;40.03;24.83;;;1.40;99.90;;;;;;10298074;28;20234;-84
2022/12/09 19:58:10;;;;;;;41.80;25.00;;;1.30;99.90;;;;;;10297732;28;20216;-84
2022/12/09 20:03:14;;;;;;;43.03;26.57;;;1.30;99.90;;;;;;10296679;28;20192;-84
2022/12/09 20:08:17;;;;;;;37.70;22.57;;;1.40;99.90;;;;;;10297685;28;20617;-84
2022/12/09 20:13:19;;;;;;;45.57;28.77;;;1.30;99.90;;;;;;10297066;28;20256;-84
2022/12/09 20:18:22;;;;;;;51.20;29.50;;;1.40;99.90;;;;;;10297032;28;20252;-84
2022/12/09 20:23:24;;;;;;;54.37;32.43;;;1.60;99.90;;;;;;10296948;28;20197;-84
2022/12/09 20:28:29;;;;;;;51.60;29.67;;;2.10;99.90;;;;;;10295584;28;20256;-84
2022/12/09 20:33:32;;;;;;;49.47;28.47;;;2.00;99.90;;;;;;10295502;28;20244;-84
2022/12/09 20:38:35;;;;;;;57.60;32.90;;;2.00;99.90;;;;;;10295144;28;20593;-84
2022/12/09 20:43:44;;;;;;;60.47;34.70;;;1.80;99.90;;;;;;10262778;28;20201;-84
2022/12/09 20:48:47;;;;;;;53.60;29.43;;;1.50;99.90;;;;;;10256292;29;20252;-84
2022/12/09 20:53:50;;;;;;;58.33;30.57;;;1.40;99.90;;;;;;10255876;29;20559;-84
2022/12/09 20:58:53;;;;;;;58.37;31.03;;;1.80;99.90;;;;;;10255532;29;20268;-84
2022/12/09 21:03:57;;;;;;;50.63;27.87;;;2.10;99.90;;;;;;10255610;29;20191;-84
2022/12/09 21:09:02;;;;;;;58.20;32.23;;;2.10;99.90;;;;;;10255318;29;20200;-84
2022/12/09 21:14:06;;;;;;;65.97;33.37;;;1.90;99.90;;;;;;10255032;29;20248;-84
2022/12/09 21:19:14;;;;;;;66.23;35.77;;;1.90;99.90;;;;;;10254826;29;20216;-84
2022/12/09 21:24:17;;;;;;;62.33;33.50;;;1.80;99.90;;;;;;10254913;29;20199;-84
2022/12/09 21:29:20;;;;;;;60.50;34.93;;;2.00;99.90;;;;;;10253316;29;20233;-84
2022/12/09 21:34:24;;;;;;;54.90;31.70;;;2.00;99.90;;;;;;10252969;29;20241;-84
2022/12/09 21:39:27;;;;;;;51.10;30.13;;;2.20;99.90;;;;;;10252637;29;20639;-84
2022/12/09 21:44:29;;;;;;;65.00;35.87;;;2.00;99.90;;;;;;10253887;29;20198;-84
2022/12/09 21:49:32;;;;;;;54.87;27.27;;;2.10;99.90;;;;;;10253262;29;20233;-84
2022/12/09 21:54:35;;;;;;;66.20;35.33;;;2.30;99.90;;;;;;10251725;28;20254;-84
2022/12/09 21:59:37;;;;;;;64.00;35.10;;;2.40;99.90;;;;;;10253496;29;20587;-84
2022/12/09 22:04:40;;;;;;;60.13;34.57;;;2.20;99.90;;;;;;10252104;29;20232;-84
2022/12/09 22:09:42;;;;;;;42.80;23.57;;;2.30;99.90;;;;;;10253158;29;20233;-84
2022/12/09 22:14:45;;;;;;;78.07;39.90;;;3.00;99.90;;;;;;10253679;28;20754;-84
2022/12/09 22:19:47;;;;;;;49.93;25.37;;;2.90;99.90;;;;;;10252918;29;20221;-84
2022/12/09 22:25:10;;;;;;;62.23;33.37;;;3.10;99.90;;;;;;10251779;29;20198;-84
2022/12/09 22:30:13;;;;;;;58.37;29.87;;;3.10;99.90;;;;;;10235674;29;20212;-84
2022/12/09 22:35:15;;;;;;;78.57;40.37;;;3.00;99.90;;;;;;10252804;29;20210;-84
2022/12/09 22:40:18;;;;;;;78.23;38.67;;;2.90;99.90;;;;;;10252333;29;20311;-84
2022/12/09 22:45:21;;;;;;;74.03;38.37;;;2.70;99.90;;;;;;10252526;29;20198;-84
2022/12/09 22:50:23;;;;;;;71.53;38.80;;;2.60;99.90;;;;;;10252292;29;20261;-84
2022/12/09 22:55:26;;;;;;;75.53;36.87;;;2.50;99.90;;;;;;10250796;29;20218;-84
2022/12/09 23:00:28;;;;;;;72.70;36.20;;;2.30;99.90;;;;;;10252200;29;20252;-84
2022/12/09 23:05:35;;;;;;;69.80;36.90;;;2.10;99.90;;;;;;10252948;28;20194;-84
2022/12/09 23:10:38;;;;;;;67.87;35.10;;;2.20;99.90;;;;;;10258070;29;20210;-84
2022/12/09 23:15:41;;;;;;;69.80;37.00;;;2.30;99.90;;;;;;10259690;29;20562;-84
2022/12/09 23:20:43;;;;;;;71.63;34.63;;;3.30;99.90;;;;;;10259403;29;20256;-84
2022/12/09 23:25:46;;;;;;;74.70;38.73;;;2.70;99.90;;;;;;10259179;29;20206;-84
2022/12/09 23:30:48;;;;;;;76.03;37.50;;;2.40;99.90;;;;;;10257914;29;20206;-84
2022/12/09 23:35:50;;;;;;;68.37;36.70;;;2.10;99.90;;;;;;10257790;29;20200;-84
2022/12/09 23:40:53;;;;;;;66.97;34.43;;;2.00;99.90;;;;;;10258399;29;20264;-84
2022/12/09 23:46:02;;;;;;;64.67;35.70;;;2.20;99.90;;;;;;10258503;29;20230;-84
2022/12/09 23:51:12;;;;;;;72.97;37.87;;;2.30;99.90;;;;;;10258361;29;20807;-84
2022/12/09 23:56:20;;;;;;;67.03;35.50;;;1.90;99.90;;;;;;10258093;29;20241;-84
